Time;durP1;ratioP1;P1;durP2;ratioP2;P2;SDS_P1;SDS_P2;PMS_P1;PMS_P2;Temp;Humidity;BMP_temperature;BMP_pressure;BME280_temperature;BME280_humidity;BME280_pressure;Samples;Min_cycle;Max_cycle;Signal;HPM_P1;HPM_P2
2022/04/06 00:02:19;;;;;;;3.10;1.53;;;8.70;99.90;;;;;;5031896;28;21001;-43
2022/04/06 00:04:46;;;;;;;2.03;1.93;;;8.70;99.90;;;;;;5032060;28;20434;-48
2022/04/06 00:07:13;;;;;;;2.57;1.90;;;8.80;99.90;;;;;;5031676;28;20445;-44
2022/04/06 00:09:40;;;;;;;2.07;1.50;;;8.80;99.90;;;;;;5031565;28;20960;-47
2022/04/06 00:12:09;;;;;;;2.77;1.53;;;8.80;99.90;;;;;;5032100;28;20481;-44
2022/04/06 00:14:36;;;;;;;3.20;2.43;;;8.80;99.90;;;;;;5032007;28;20559;-43
2022/04/06 00:17:05;;;;;;;3.27;3.07;;;8.80;99.90;;;;;;5031794;28;20496;-44
2022/04/06 00:19:33;;;;;;;3.80;3.27;;;8.80;99.90;;;;;;5031530;28;20450;-44
2022/04/06 00:22:01;;;;;;;2.23;2.00;;;8.80;99.90;;;;;;5031729;28;20448;-44
2022/04/06 00:24:28;;;;;;;1.87;1.77;;;8.30;99.90;;;;;;5031936;28;20517;-44
2022/04/06 00:26:55;;;;;;;3.47;2.20;;;8.30;99.90;;;;;;5032044;28;20465;-44
2022/04/06 00:29:23;;;;;;;5.83;2.47;;;8.20;99.90;;;;;;5030937;28;20535;-44
2022/04/06 00:31:50;;;;;;;2.17;1.97;;;8.20;99.90;;;;;;5031816;28;20533;-44
2022/04/06 00:34:17;;;;;;;2.37;2.00;;;8.30;99.90;;;;;;5031573;28;20559;-44
2022/04/06 00:36:44;;;;;;;1.73;1.63;;;8.30;99.90;;;;;;5031539;28;20449;-45
2022/04/06 00:39:12;;;;;;;2.13;1.47;;;8.30;99.90;;;;;;5031417;28;20463;-44
2022/04/06 00:41:40;;;;;;;2.40;1.70;;;8.40;99.90;;;;;;5031274;28;20953;-44
2022/04/06 00:44:10;;;;;;;1.90;1.63;;;8.50;99.90;;;;;;5031912;28;20434;-45
2022/04/06 00:46:39;;;;;;;1.97;1.80;;;8.60;99.90;;;;;;5031320;28;20481;-44
2022/04/06 00:49:11;;;;;;;3.10;2.00;;;8.70;99.90;;;;;;5030470;28;20549;-44
2022/04/06 00:51:39;;;;;;;2.27;1.70;;;8.80;99.90;;;;;;5031607;28;20458;-44
2022/04/06 00:54:06;;;;;;;1.70;1.60;;;8.80;99.90;;;;;;5031437;28;21047;-43
2022/04/06 00:56:33;;;;;;;3.87;2.13;;;8.50;99.90;;;;;;5031074;28;20452;-48
2022/04/06 00:59:01;;;;;;;2.10;1.60;;;8.30;99.90;;;;;;5030996;28;20462;-44
2022/04/06 01:01:28;;;;;;;1.50;1.33;;;8.00;99.90;;;;;;5031021;28;20957;-45
2022/04/06 01:03:56;;;;;;;2.27;1.93;;;7.90;99.90;;;;;;5030939;28;20541;-44
2022/04/06 01:06:24;;;;;;;3.03;1.93;;;7.80;99.90;;;;;;5031183;28;20489;-44
2022/04/06 01:08:52;;;;;;;2.97;2.60;;;8.00;99.90;;;;;;5031498;28;20466;-44
2022/04/06 01:11:19;;;;;;;4.70;2.73;;;8.00;99.90;;;;;;5030840;28;20446;-44
2022/04/06 01:13:46;;;;;;;3.40;2.23;;;8.10;99.90;;;;;;5031169;28;20470;-43
2022/04/06 01:16:14;;;;;;;3.80;2.50;;;8.30;99.90;;;;;;5031310;28;20477;-44
2022/04/06 01:18:41;;;;;;;2.40;2.20;;;8.40;99.90;;;;;;5030800;28;20550;-47
2022/04/06 01:21:11;;;;;;;2.00;1.73;;;8.50;99.90;;;;;;5030933;28;20994;-45
2022/04/06 01:23:41;;;;;;;2.53;1.80;;;8.60;99.90;;;;;;5031477;28;20805;-43
2022/04/06 01:26:08;;;;;;;2.07;1.87;;;8.60;99.90;;;;;;5031561;28;20857;-44
2022/04/06 01:28:35;;;;;;;1.87;1.53;;;8.60;99.90;;;;;;5031574;28;20473;-47
2022/04/06 01:31:02;;;;;;;1.80;1.67;;;8.60;99.90;;;;;;5031160;28;20442;-44
2022/04/06 01:33:29;;;;;;;2.63;2.43;;;8.60;99.90;;;;;;5031089;28;20438;-44
2022/04/06 01:35:57;;;;;;;2.83;2.10;;;8.60;99.90;;;;;;5031268;28;20907;-44
2022/04/06 01:38:24;;;;;;;2.60;2.40;;;8.60;99.90;;;;;;5031176;28;20520;-44
2022/04/06 01:40:53;;;;;;;4.13;2.30;;;8.70;99.90;;;;;;5030892;28;20450;-44
2022/04/06 01:43:20;;;;;;;2.20;2.00;;;8.70;99.90;;;;;;5031153;28;20446;-43
2022/04/06 01:45:48;;;;;;;2.90;2.30;;;8.80;99.90;;;;;;5031156;28;20495;-44
2022/04/06 01:48:15;;;;;;;3.60;2.73;;;8.80;99.90;;;;;;5030863;28;20470;-47
2022/04/06 01:53:27;;;;;;;3.10;2.33;;;8.70;99.90;;;;;;5031060;28;20469;-46
2022/04/06 01:55:56;;;;;;;2.73;2.23;;;8.60;99.90;;;;;;5030641;28;20883;-44
2022/04/06 01:58:23;;;;;;;2.23;1.83;;;8.60;99.90;;;;;;5030864;28;20514;-46
2022/04/06 02:00:52;;;;;;;1.77;1.67;;;8.60;99.90;;;;;;5031478;28;20820;-44
2022/04/06 02:03:19;;;;;;;2.00;1.80;;;8.70;99.90;;;;;;5034106;28;20440;-48
2022/04/06 02:05:47;;;;;;;2.20;1.53;;;8.80;99.90;;;;;;5034497;28;20499;-43
2022/04/06 02:08:14;;;;;;;1.93;1.50;;;8.50;99.90;;;;;;5034145;28;20517;-49
2022/04/06 02:10:41;;;;;;;2.17;1.97;;;8.00;99.90;;;;;;5034015;28;20476;-44
2022/04/06 02:13:09;;;;;;;2.90;1.80;;;7.80;99.90;;;;;;5034270;28;20528;-43
2022/04/06 02:15:39;;;;;;;1.80;1.70;;;7.70;99.90;;;;;;5034215;28;20563;-47
2022/04/06 02:18:07;;;;;;;5.73;2.00;;;7.80;99.90;;;;;;5033800;28;20472;-43
2022/04/06 02:20:34;;;;;;;2.67;2.07;;;7.80;99.90;;;;;;5033708;28;20784;-44
2022/04/06 02:23:01;;;;;;;2.10;1.70;;;8.00;99.90;;;;;;5034177;28;20532;-44
2022/04/06 02:25:28;;;;;;;3.40;2.17;;;8.20;99.90;;;;;;5034139;28;20466;-44
2022/04/06 02:27:55;;;;;;;2.80;1.97;;;8.30;99.90;;;;;;5033913;28;20620;-48
2022/04/06 02:30:24;;;;;;;2.03;1.70;;;8.50;99.90;;;;;;5033314;28;20442;-43
2022/04/06 02:32:51;;;;;;;2.40;2.20;;;8.60;99.90;;;;;;5034152;28;20442;-44
2022/04/06 02:35:18;;;;;;;1.90;1.70;;;8.60;99.90;;;;;;5034198;28;20482;-44
2022/04/06 02:37:45;;;;;;;2.57;2.00;;;8.70;99.90;;;;;;5033921;28;20470;-46
2022/04/06 02:40:14;;;;;;;1.50;1.40;;;8.70;99.90;;;;;;5033608;28;20450;-44
2022/04/06 02:42:41;;;;;;;2.63;1.77;;;8.70;99.90;;;;;;5033953;28;20500;-44
2022/04/06 02:45:09;;;;;;;2.83;2.30;;;8.70;99.90;;;;;;5033802;28;20475;-47
2022/04/06 02:47:37;;;;;;;1.87;1.77;;;8.40;99.90;;;;;;5033601;28;20466;-47
2022/04/06 02:50:05;;;;;;;4.03;2.37;;;8.00;99.90;;;;;;5033532;28;20482;-48
2022/04/06 02:52:32;;;;;;;1.73;1.63;;;7.40;99.90;;;;;;5033417;28;20442;-47
2022/04/06 02:54:59;;;;;;;2.27;2.07;;;7.30;99.90;;;;;;5033322;28;20555;-46
2022/04/06 02:57:26;;;;;;;1.80;1.67;;;7.50;99.90;;;;;;5033421;28;20898;-43
2022/04/06 02:59:53;;;;;;;2.60;2.20;;;7.70;99.90;;;;;;5033120;28;20939;-46
2022/04/06 03:02:20;;;;;;;1.90;1.77;;;7.90;99.90;;;;;;5033961;28;20480;-44
2022/04/06 03:04:48;;;;;;;2.40;2.20;;;8.00;99.90;;;;;;5033174;28;20925;-44
2022/04/06 03:07:19;;;;;;;3.67;2.17;;;8.00;99.90;;;;;;5032915;28;20525;-47
2022/04/06 03:09:46;;;;;;;2.47;2.07;;;8.00;99.90;;;;;;5033007;28;20445;-46
2022/04/06 03:12:13;;;;;;;1.93;1.73;;;8.00;99.90;;;;;;5032938;28;20833;-44
2022/04/06 03:14:40;;;;;;;4.53;2.17;;;8.10;99.90;;;;;;5033005;28;20506;-47
2022/04/06 03:17:07;;;;;;;3.73;1.80;;;8.10;99.90;;;;;;5032902;28;20528;-44
2022/04/06 03:19:34;;;;;;;2.47;1.73;;;8.20;99.90;;;;;;5032840;28;20464;-44
2022/04/06 03:22:03;;;;;;;1.50;1.40;;;8.30;99.90;;;;;;5033076;28;20471;-44
2022/04/06 03:24:30;;;;;;;1.90;1.47;;;8.40;99.90;;;;;;5032944;28;20932;-44
2022/04/06 03:26:57;;;;;;;1.60;1.50;;;8.50;99.90;;;;;;5033196;28;20537;-47
2022/04/06 03:29:24;;;;;;;2.00;1.80;;;8.50;99.90;;;;;;5032228;28;20916;-43
2022/04/06 03:31:51;;;;;;;2.50;1.87;;;8.50;99.90;;;;;;5032879;28;20868;-44
2022/04/06 03:34:17;;;;;;;2.90;2.30;;;8.60;99.90;;;;;;5033094;28;20446;-45
2022/04/06 03:36:44;;;;;;;2.60;1.93;;;8.60;99.90;;;;;;5033016;28;20870;-44
2022/04/06 03:39:13;;;;;;;1.67;1.53;;;8.50;99.90;;;;;;5032217;28;20508;-48
2022/04/06 03:41:40;;;;;;;3.87;2.23;;;8.40;99.90;;;;;;5032431;28;20478;-47
2022/04/06 03:44:07;;;;;;;2.20;2.00;;;7.90;99.90;;;;;;5032146;28;20442;-44
2022/04/06 03:46:34;;;;;;;4.67;2.30;;;7.70;99.90;;;;;;5032441;28;20442;-48
2022/04/06 03:49:01;;;;;;;2.67;2.33;;;7.60;99.90;;;;;;5032240;28;20528;-44
2022/04/06 03:51:28;;;;;;;2.80;2.53;;;7.80;99.90;;;;;;5032759;28;20445;-46
2022/04/06 03:53:55;;;;;;;2.20;2.00;;;7.90;99.90;;;;;;5032489;28;20477;-44
2022/04/06 03:56:24;;;;;;;2.30;2.10;;;8.10;99.90;;;;;;5032601;28;21034;-43
2022/04/06 03:58:51;;;;;;;2.40;2.20;;;8.20;99.90;;;;;;5032856;28;20990;-48
2022/04/06 04:01:18;;;;;;;3.33;2.70;;;7.90;99.90;;;;;;5032014;28;20446;-44
2022/04/06 04:03:44;;;;;;;3.40;2.50;;;7.30;99.90;;;;;;5032311;28;20479;-44
2022/04/06 04:06:11;;;;;;;2.23;2.03;;;6.90;99.90;;;;;;5032422;28;20438;-44
2022/04/06 04:08:38;;;;;;;2.90;2.03;;;6.70;99.90;;;;;;5032066;28;20908;-46
2022/04/06 04:11:05;;;;;;;3.10;2.10;;;6.60;99.90;;;;;;5031988;28;20476;-44
2022/04/06 04:13:34;;;;;;;3.03;2.70;;;6.80;99.90;;;;;;5032714;28;20503;-44
2022/04/06 04:16:01;;;;;;;3.70;2.87;;;7.00;99.90;;;;;;5032603;28;20510;-44
2022/04/06 04:18:28;;;;;;;3.07;2.77;;;7.30;99.90;;;;;;5032924;28;20498;-47
2022/04/06 04:21:32;;;;;;;7.17;6.47;;;7.30;99.90;;;;;;5032715;28;20438;-44
2022/04/06 04:23:42;;;;;;;8.47;7.67;;;6.90;99.90;;;;;;5031617;28;20460;-44
2022/04/06 04:26:09;;;;;;;6.03;5.53;;;6.60;99.90;;;;;;5031395;28;20481;-43
2022/04/06 04:28:37;;;;;;;2.83;2.63;;;6.70;99.90;;;;;;5032109;28;20505;-44
2022/04/06 04:31:04;;;;;;;2.50;2.30;;;6.90;99.90;;;;;;5032682;28;20450;-43
2022/04/06 04:33:31;;;;;;;4.63;2.00;;;7.00;99.90;;;;;;5033192;28;20482;-44
2022/04/06 04:35:58;;;;;;;2.40;2.20;;;7.20;99.90;;;;;;5033233;28;20573;-44
2022/04/06 04:38:25;;;;;;;4.50;4.10;;;7.20;99.90;;;;;;5032468;28;20498;-44
2022/04/06 04:40:52;;;;;;;2.83;2.10;;;7.10;99.90;;;;;;5032123;28;20444;-44
2022/04/06 04:43:19;;;;;;;3.10;2.30;;;6.60;99.90;;;;;;5032227;28;20520;-48
2022/04/06 04:45:48;;;;;;;3.07;2.30;;;6.50;99.90;;;;;;5032490;28;20838;-44
2022/04/06 04:48:15;;;;;;;2.50;2.20;;;6.60;99.90;;;;;;5032691;28;20467;-44
2022/04/06 04:50:42;;;;;;;1.70;1.50;;;6.70;99.90;;;;;;5032338;28;20474;-44
2022/04/06 04:53:09;;;;;;;3.47;2.17;;;6.40;99.90;;;;;;5032638;28;20525;-44
2022/04/06 04:55:36;;;;;;;3.93;2.60;;;6.40;99.90;;;;;;5032488;28;20513;-44
2022/04/06 04:58:03;;;;;;;2.60;1.60;;;6.30;99.90;;;;;;5032177;28;20520;-45
2022/04/06 05:00:30;;;;;;;1.93;1.83;;;6.30;99.90;;;;;;5032221;28;20448;-44
2022/04/06 05:02:58;;;;;;;2.17;1.90;;;6.30;99.90;;;;;;5032004;28;20939;-47
2022/04/06 05:05:25;;;;;;;3.50;2.00;;;6.40;99.90;;;;;;5032866;28;20494;-46
2022/04/06 05:07:52;;;;;;;2.60;2.40;;;6.50;99.90;;;;;;5032677;28;20489;-43
2022/04/06 05:10:19;;;;;;;2.70;2.27;;;6.60;99.90;;;;;;5032222;28;20966;-44
2022/04/06 05:12:48;;;;;;;3.03;2.60;;;6.40;99.90;;;;;;5032193;28;20445;-45
2022/04/06 05:15:15;;;;;;;2.50;2.13;;;6.40;99.90;;;;;;5032303;28;20478;-43
2022/04/06 05:17:42;;;;;;;3.83;3.40;;;6.60;99.90;;;;;;5032002;28;20466;-44
2022/04/06 05:20:11;;;;;;;3.70;2.47;;;6.80;99.90;;;;;;5032178;28;21001;-43
2022/04/06 05:22:39;;;;;;;3.33;3.03;;;7.00;99.90;;;;;;5033088;28;20500;-46
2022/04/06 05:25:07;;;;;;;4.53;2.70;;;7.00;99.90;;;;;;5032288;28;20478;-45
2022/04/06 05:27:43;;;;;;;2.10;1.90;;;7.10;99.90;;;;;;5032081;28;20493;-48
2022/04/06 05:30:11;;;;;;;1.90;1.63;;;7.20;99.90;;;;;;5032176;28;20890;-45
2022/04/06 05:32:38;;;;;;;2.63;2.40;;;7.30;99.90;;;;;;5032390;28;20970;-43
2022/04/06 05:35:06;;;;;;;2.77;2.50;;;7.30;99.90;;;;;;5032423;28;20450;-43
2022/04/06 05:37:35;;;;;;;3.00;2.43;;;7.30;99.90;;;;;;5036031;28;20454;-44
2022/04/06 05:40:02;;;;;;;3.20;2.63;;;7.40;99.90;;;;;;5036438;28;20552;-43
2022/04/06 05:42:29;;;;;;;3.13;2.83;;;7.40;99.90;;;;;;5036188;28;20442;-49
2022/04/06 05:44:56;;;;;;;5.20;3.47;;;7.50;99.90;;;;;;5036018;28;20484;-44
2022/04/06 05:47:23;;;;;;;5.13;3.77;;;7.60;99.90;;;;;;5036823;28;20462;-43
2022/04/06 05:49:51;;;;;;;3.60;3.30;;;7.60;99.90;;;;;;5035857;28;20434;-45
2022/04/06 05:52:18;;;;;;;3.67;2.90;;;7.60;99.90;;;;;;5035934;28;20484;-47
2022/04/06 05:54:46;;;;;;;2.60;2.40;;;7.60;99.90;;;;;;5035740;28;20454;-43
2022/04/06 05:57:13;;;;;;;2.57;2.37;;;7.60;99.90;;;;;;5035544;28;20521;-43
2022/04/06 05:59:41;;;;;;;3.10;2.20;;;7.60;99.90;;;;;;5035661;28;20475;-47
2022/04/06 06:02:08;;;;;;;2.63;2.07;;;7.60;99.90;;;;;;5035700;28;20450;-43
2022/04/06 06:04:35;;;;;;;2.30;2.00;;;7.60;99.90;;;;;;5035993;28;20469;-44
2022/04/06 06:07:02;;;;;;;3.10;2.63;;;7.70;99.90;;;;;;5035623;28;20503;-43
2022/04/06 06:09:29;;;;;;;2.60;2.00;;;7.60;99.90;;;;;;5035815;28;20442;-45
2022/04/06 06:11:58;;;;;;;2.90;2.00;;;7.40;99.90;;;;;;5035379;28;20484;-44
2022/04/06 06:14:25;;;;;;;3.43;2.40;;;7.30;99.90;;;;;;5035323;28;20469;-43
2022/04/06 06:16:52;;;;;;;3.37;2.20;;;7.40;99.90;;;;;;5035378;28;20569;-44
2022/04/06 06:19:20;;;;;;;2.90;1.97;;;7.50;99.90;;;;;;5034535;28;20497;-44
2022/04/06 06:21:47;;;;;;;2.13;1.87;;;7.60;99.90;;;;;;5035088;28;20507;-44
2022/04/06 06:24:14;;;;;;;2.90;2.00;;;7.60;99.90;;;;;;5035080;28;20450;-48
2022/04/06 06:26:42;;;;;;;4.43;2.33;;;7.40;99.90;;;;;;5035269;28;20442;-44
2022/04/06 06:29:12;;;;;;;12.40;7.50;;;7.50;99.90;;;;;;5034400;28;20482;-44
2022/04/06 06:31:39;;;;;;;7.03;6.20;;;7.40;99.90;;;;;;5035424;28;20533;-44
2022/04/06 06:34:06;;;;;;;3.70;3.40;;;7.40;99.90;;;;;;5034954;28;20500;-43
2022/04/06 06:36:33;;;;;;;6.00;3.10;;;7.30;99.90;;;;;;5034734;28;20478;-44
2022/04/06 06:39:00;;;;;;;2.37;2.17;;;7.00;99.90;;;;;;5033950;28;20494;-44
2022/04/06 06:41:27;;;;;;;2.90;2.60;;;7.10;99.90;;;;;;5034494;28;20442;-46
2022/04/06 06:43:56;;;;;;;4.87;3.57;;;7.10;99.90;;;;;;5034677;28;20962;-44
2022/04/06 06:46:24;;;;;;;3.47;3.00;;;7.10;99.90;;;;;;5035255;28;20446;-44
2022/04/06 06:48:52;;;;;;;3.80;3.00;;;7.10;99.90;;;;;;5033894;28;20454;-43
2022/04/06 06:51:19;;;;;;;4.13;2.67;;;7.10;99.90;;;;;;5035292;28;20446;-44
2022/04/06 06:53:46;;;;;;;7.83;2.53;;;7.10;99.90;;;;;;5035302;28;20477;-44
2022/04/06 06:56:15;;;;;;;3.60;3.17;;;7.10;99.90;;;;;;5034280;28;20482;-44
2022/04/06 06:58:41;;;;;;;3.90;2.60;;;7.10;99.90;;;;;;5034246;28;20501;-46
2022/04/06 07:01:08;;;;;;;3.40;2.40;;;7.30;99.90;;;;;;5033950;28;20993;-44
2022/04/06 07:03:37;;;;;;;5.47;2.93;;;7.30;99.90;;;;;;5034369;28;20935;-44
2022/04/06 07:06:04;;;;;;;2.17;1.97;;;7.40;99.90;;;;;;5033874;28;20536;-44
2022/04/06 07:08:31;;;;;;;2.80;2.20;;;7.40;99.90;;;;;;5033408;28;20472;-44
2022/04/06 07:10:58;;;;;;;2.47;2.27;;;7.30;99.90;;;;;;5033286;28;20540;-45
2022/04/06 07:13:25;;;;;;;2.33;2.03;;;7.10;99.90;;;;;;5033211;28;20447;-45
2022/04/06 07:15:52;;;;;;;1.83;1.50;;;7.20;99.90;;;;;;5032942;28;20990;-44
2022/04/06 07:18:21;;;;;;;1.80;1.57;;;7.20;99.90;;;;;;5032989;28;20501;-47
2022/04/06 07:20:50;;;;;;;2.50;1.70;;;7.10;99.90;;;;;;5033047;28;20443;-44
2022/04/06 07:23:17;;;;;;;4.43;1.87;;;7.00;99.90;;;;;;5033396;28;20477;-44
2022/04/06 07:25:44;;;;;;;2.60;1.83;;;7.30;99.90;;;;;;5032935;28;20806;-48
2022/04/06 07:28:12;;;;;;;1.87;1.67;;;7.40;99.90;;;;;;5033949;28;20485;-46
2022/04/06 07:30:39;;;;;;;1.70;1.60;;;7.60;99.90;;;;;;5032669;28;20993;-45
2022/04/06 07:33:09;;;;;;;1.63;1.50;;;7.70;99.90;;;;;;5032679;28;20438;-44
2022/04/06 07:35:37;;;;;;;2.03;1.83;;;8.00;99.90;;;;;;5032679;28;20446;-44
2022/04/06 07:38:06;;;;;;;2.80;2.20;;;8.10;99.90;;;;;;5032411;28;20967;-43
2022/04/06 07:40:35;;;;;;;1.87;1.63;;;8.30;99.90;;;;;;5033007;28;20441;-44
2022/04/06 07:43:02;;;;;;;2.80;2.10;;;8.40;99.90;;;;;;5032629;28;20488;-44
2022/04/06 07:45:29;;;;;;;1.60;1.50;;;8.60;99.90;;;;;;5032619;28;20442;-46
2022/04/06 07:47:56;;;;;;;3.27;2.10;;;8.70;99.90;;;;;;5032313;28;20490;-44
2022/04/06 07:50:23;;;;;;;2.40;1.93;;;8.80;99.90;;;;;;5031466;28;20473;-47
2022/04/06 07:52:51;;;;;;;2.13;1.70;;;8.90;99.90;;;;;;5031335;28;20446;-44
2022/04/06 07:55:19;;;;;;;2.43;2.07;;;9.00;99.90;;;;;;5032332;28;20866;-46
2022/04/06 07:57:46;;;;;;;3.20;2.10;;;9.10;99.90;;;;;;5032008;28;20784;-43
2022/04/06 08:00:16;;;;;;;1.93;1.80;;;9.20;99.90;;;;;;5031624;28;20855;-44
2022/04/06 08:02:43;;;;;;;3.13;1.67;;;9.30;99.90;;;;;;5032341;28;20469;-44
2022/04/06 08:05:11;;;;;;;2.30;1.87;;;9.30;99.90;;;;;;5032209;28;20445;-43
2022/04/06 08:07:43;;;;;;;2.97;1.80;;;9.50;99.90;;;;;;5030610;28;20469;-42
2022/04/06 08:10:15;;;;;;;2.53;2.33;;;9.60;99.90;;;;;;5030619;28;20447;-43
2022/04/06 08:12:43;;;;;;;3.13;2.03;;;9.70;99.90;;;;;;5030582;28;20529;-42
2022/04/06 08:15:11;;;;;;;2.90;2.60;;;9.70;99.90;;;;;;5031509;28;20790;-43
2022/04/06 08:17:40;;;;;;;2.00;1.80;;;9.70;99.90;;;;;;5031864;28;20486;-41
2022/04/06 08:20:09;;;;;;;2.80;2.40;;;9.70;99.90;;;;;;5031580;28;20453;-44
2022/04/06 08:22:38;;;;;;;2.60;2.30;;;9.70;99.90;;;;;;5031995;28;20446;-43
2022/04/06 08:25:07;;;;;;;2.33;2.13;;;9.80;99.90;;;;;;5032088;28;20469;-43
2022/04/06 08:27:36;;;;;;;3.60;3.10;;;9.80;99.90;;;;;;5031495;28;20465;-44
2022/04/06 08:30:05;;;;;;;2.63;2.00;;;9.80;99.90;;;;;;5031480;28;20647;-42
2022/04/06 08:32:33;;;;;;;3.83;2.97;;;9.90;99.90;;;;;;5031584;28;20800;-43
2022/04/06 08:35:00;;;;;;;6.23;4.30;;;9.90;99.90;;;;;;5031689;28;20520;-46
2022/04/06 08:37:30;;;;;;;4.67;3.43;;;10.10;99.90;;;;;;5031447;28;20678;-42
2022/04/06 08:39:57;;;;;;;4.33;3.73;;;10.20;99.90;;;;;;5031392;28;20531;-42
2022/04/06 08:42:25;;;;;;;3.57;3.27;;;10.40;99.90;;;;;;5031417;28;20485;-42
2022/04/06 08:44:54;;;;;;;5.20;3.27;;;10.50;99.90;;;;;;5031339;28;20446;-43
2022/04/06 08:47:23;;;;;;;4.60;3.80;;;10.60;99.90;;;;;;5031512;28;20886;-45
2022/04/06 08:49:51;;;;;;;5.60;3.43;;;10.80;99.90;;;;;;5031317;28;20482;-44
2022/04/06 08:52:18;;;;;;;3.43;3.13;;;11.00;99.90;;;;;;5031273;28;20453;-42
2022/04/06 08:54:45;;;;;;;13.40;4.30;;;11.20;99.90;;;;;;5030989;28;20939;-44
2022/04/06 08:57:14;;;;;;;4.20;3.03;;;11.40;99.90;;;;;;5030993;28;21006;-43
2022/04/06 08:59:41;;;;;;;4.30;3.33;;;11.70;99.90;;;;;;5031044;28;20457;-42
2022/04/06 09:02:10;;;;;;;3.80;3.17;;;11.90;99.90;;;;;;5031372;28;20853;-44
2022/04/06 09:04:40;;;;;;;3.20;2.73;;;12.20;99.90;;;;;;5031129;28;20508;-42
2022/04/06 09:07:09;;;;;;;3.77;3.03;;;12.30;99.90;;;;;;5030850;28;20989;-43
2022/04/06 09:09:37;;;;;;;4.53;3.43;;;12.50;99.90;;;;;;5031229;28;20818;-46
2022/04/06 09:12:08;;;;;;;3.60;3.30;;;12.70;99.90;;;;;;5037311;28;20445;-42
2022/04/06 09:14:35;;;;;;;4.03;3.10;;;12.90;99.90;;;;;;5037789;28;20441;-43
2022/04/06 09:17:03;;;;;;;3.40;3.10;;;13.10;99.90;;;;;;5037678;28;20473;-42
2022/04/06 09:19:30;;;;;;;3.13;2.80;;;13.40;99.90;;;;;;5037255;28;20473;-43
2022/04/06 09:21:58;;;;;;;4.00;3.37;;;13.60;99.90;;;;;;5037859;28;20450;-44
2022/04/06 09:24:26;;;;;;;4.90;3.93;;;13.80;99.90;;;;;;5037751;28;20558;-43
2022/04/06 09:26:57;;;;;;;3.50;3.20;;;13.80;99.90;;;;;;5037911;28;20513;-47
2022/04/06 09:29:25;;;;;;;4.90;3.67;;;14.00;99.90;;;;;;5037288;28;20496;-43
2022/04/06 09:31:52;;;;;;;3.30;3.00;;;14.30;99.90;;;;;;5037413;28;20982;-44
2022/04/06 09:34:22;;;;;;;4.50;3.70;;;14.60;99.90;;;;;;5037750;28;20448;-42
2022/04/06 09:36:56;;;;;;;3.43;3.00;;;14.70;99.90;;;;;;5037723;28;20477;-42
2022/04/06 09:39:41;;;;;;;3.43;3.13;;;14.70;99.90;;;;;;5037616;28;20505;-43
2022/04/06 09:42:08;;;;;;;3.47;2.63;;;14.40;99.90;;;;;;5037604;28;20434;-43
2022/04/06 09:47:40;;;;;;;4.27;3.90;;;14.70;99.90;;;;;;5037400;28;20441;-43
2022/04/06 09:50:14;;;;;;;4.30;3.90;;;15.10;99.90;;;;;;5037384;28;20442;-42
2022/04/06 09:52:42;;;;;;;3.60;3.30;;;15.10;99.90;;;;;;5037177;28;20459;-43
2022/04/06 09:55:12;;;;;;;4.83;4.33;;;15.00;99.90;;;;;;5037732;28;20482;-43
2022/04/06 09:57:42;;;;;;;3.73;3.43;;;15.10;99.90;;;;;;5037343;28;20569;-43
2022/04/06 10:00:13;;;;;;;3.07;2.73;;;15.00;99.90;;;;;;5037445;28;20525;-45
2022/04/06 10:02:42;;;;;;;3.50;3.20;;;15.00;99.90;;;;;;5037389;28;20481;-43
2022/04/06 10:05:13;;;;;;;3.20;2.90;;;15.20;99.90;;;;;;5037360;28;20442;-42
2022/04/06 10:07:41;;;;;;;3.23;2.83;;;15.50;99.90;;;;;;5036890;28;20490;-45
2022/04/06 10:10:10;;;;;;;3.63;2.80;;;15.70;99.90;;;;;;5037026;28;20482;-48
2022/04/06 10:12:37;;;;;;;2.93;2.70;;;16.00;99.90;;;;;;5037263;28;20481;-43
2022/04/06 10:15:06;;;;;;;3.83;2.67;;;16.00;99.90;;;;;;5037046;28;20871;-42
2022/04/06 10:17:35;;;;;;;3.10;2.80;;;16.00;99.90;;;;;;5036865;28;21117;-44
2022/04/06 10:20:09;;;;;;;4.33;3.37;;;16.00;99.90;;;;;;5037051;28;20453;-43
2022/04/06 10:22:46;;;;;;;3.57;3.27;;;16.00;99.90;;;;;;5035706;28;20528;-43
2022/04/06 10:25:22;;;;;;;3.60;2.97;;;16.00;99.90;;;;;;5034192;28;20970;-44
2022/04/06 10:27:54;;;;;;;4.80;3.90;;;16.00;99.90;;;;;;5032574;28;20501;-44
2022/04/06 10:30:23;;;;;;;4.10;3.60;;;16.10;99.90;;;;;;5023256;28;20435;-43
2022/04/06 10:32:52;;;;;;;4.10;3.70;;;16.10;99.90;;;;;;5022603;28;20440;-43
2022/04/06 10:35:24;;;;;;;3.23;2.93;;;16.00;99.90;;;;;;5022463;28;20443;-43
2022/04/06 10:37:53;;;;;;;4.50;3.63;;;16.10;99.90;;;;;;5021987;28;20479;-43
2022/04/06 10:40:22;;;;;;;3.87;3.50;;;15.90;99.90;;;;;;5023027;28;20438;-46
2022/04/06 10:42:49;;;;;;;5.70;3.57;;;15.90;99.90;;;;;;5023936;28;20438;-43
2022/04/06 10:45:43;;;;;;;6.40;3.87;;;15.90;99.90;;;;;;5023110;28;20884;-45
2022/04/06 10:48:12;;;;;;;4.63;3.70;;;15.90;99.90;;;;;;4994045;28;20474;-46
2022/04/06 10:50:40;;;;;;;3.60;3.30;;;15.80;99.90;;;;;;5013229;28;20501;-43
2022/04/06 10:53:29;;;;;;;5.80;2.73;;;15.60;99.90;;;;;;5012577;28;21035;-46
2022/04/06 10:56:06;;;;;;;3.63;3.33;;;15.70;99.90;;;;;;5010396;28;20830;-43
2022/04/06 10:59:09;;;;;;;3.17;2.50;;;16.00;99.90;;;;;;5013006;28;21007;-43
2022/04/06 11:01:38;;;;;;;2.97;2.40;;;16.10;99.90;;;;;;5013830;28;20447;-43
2022/04/06 11:04:09;;;;;;;3.00;2.43;;;16.20;99.90;;;;;;5013594;28;20451;-46
2022/04/06 11:06:59;;;;;;;3.00;2.10;;;16.30;99.90;;;;;;5013278;28;20509;-43
2022/04/06 11:12:15;;;;;;;4.33;2.47;;;16.20;99.90;;;;;;5013358;28;20530;-43
2022/04/06 11:14:43;;;;;;;3.50;2.60;;;16.10;99.90;;;;;;5013164;28;20786;-42
2022/04/06 11:17:38;;;;;;;2.73;2.33;;;16.20;99.90;;;;;;5013047;28;20483;-48
2022/04/06 11:20:10;;;;;;;2.53;1.53;;;16.30;99.90;;;;;;5012814;28;20522;-42
2022/04/06 11:22:39;;;;;;;3.30;1.70;;;16.40;99.90;;;;;;5013665;28;20448;-43
2022/04/06 11:25:11;;;;;;;4.67;2.10;;;16.30;99.90;;;;;;5013118;28;20502;-46
2022/04/06 11:27:41;;;;;;;1.10;1.00;;;16.30;99.90;;;;;;5012799;28;20478;-43
2022/04/06 11:30:12;;;;;;;1.93;1.83;;;16.30;99.90;;;;;;5012463;28;20891;-43
2022/04/06 11:32:40;;;;;;;1.73;1.30;;;16.40;99.90;;;;;;5012583;28;20455;-45
2022/04/06 11:35:09;;;;;;;2.10;1.47;;;16.30;99.90;;;;;;5012347;28;20479;-43
2022/04/06 11:37:41;;;;;;;2.80;1.70;;;16.40;99.80;;;;;;5012884;28;20569;-43
2022/04/06 11:40:10;;;;;;;5.30;4.90;;;16.40;99.80;;;;;;5012915;28;20438;-42
2022/04/06 11:42:38;;;;;;;1.73;1.37;;;16.40;99.90;;;;;;5012656;28;20881;-43
2022/04/06 11:45:06;;;;;;;2.10;1.83;;;16.40;99.40;;;;;;5012638;28;20944;-42
2022/04/06 11:47:35;;;;;;;2.40;1.40;;;16.40;99.90;;;;;;5012228;28;20490;-43
2022/04/06 11:50:03;;;;;;;12.33;2.80;;;16.50;99.80;;;;;;5012451;28;20531;-42
2022/04/06 11:52:30;;;;;;;1.70;1.50;;;16.40;99.90;;;;;;5012417;28;20482;-48
2022/04/06 11:54:58;;;;;;;1.30;1.20;;;16.50;99.30;;;;;;5012948;28;20861;-43
2022/04/06 11:57:35;;;;;;;2.10;1.50;;;16.60;98.70;;;;;;5012142;28;20515;-45
2022/04/06 12:00:06;;;;;;;2.83;1.70;;;16.70;99.90;;;;;;5012020;28;20442;-43
2022/04/06 12:02:52;;;;;;;2.43;2.07;;;16.80;99.90;;;;;;5012751;28;20784;-42
2022/04/06 12:05:19;;;;;;;1.80;1.70;;;16.90;99.60;;;;;;5012717;28;20482;-47
2022/04/06 12:07:47;;;;;;;1.97;1.70;;;16.80;98.80;;;;;;5012494;28;20513;-42
2022/04/06 12:10:14;;;;;;;2.23;2.03;;;16.80;98.70;;;;;;5012423;28;20443;-43
2022/04/06 12:12:42;;;;;;;2.27;2.07;;;16.80;99.70;;;;;;5012530;28;20482;-43
2022/04/06 12:15:11;;;;;;;1.73;1.63;;;16.90;99.10;;;;;;5012625;28;20458;-44
2022/04/06 12:17:39;;;;;;;2.37;1.60;;;16.90;98.70;;;;;;5012335;28;20493;-42
2022/04/06 12:20:25;;;;;;;1.70;1.57;;;16.90;98.90;;;;;;5012128;28;20466;-43
2022/04/06 12:23:02;;;;;;;4.53;2.00;;;16.90;98.00;;;;;;5011900;28;20461;-43
2022/04/06 12:25:30;;;;;;;2.30;1.63;;;17.00;97.70;;;;;;5012467;28;20464;-45
2022/04/06 12:28:11;;;;;;;2.07;1.63;;;17.10;96.40;;;;;;5012162;28;20478;-46
2022/04/06 12:30:56;;;;;;;2.17;1.80;;;17.10;97.20;;;;;;5011760;28;20454;-43
2022/04/06 12:33:37;;;;;;;1.60;1.33;;;17.10;97.40;;;;;;5012419;28;20439;-43
2022/04/06 12:36:12;;;;;;;2.93;2.33;;;17.20;96.30;;;;;;5012291;28;20443;-43
2022/04/06 12:38:40;;;;;;;2.07;1.83;;;17.20;97.60;;;;;;5011729;28;20564;-47
2022/04/06 12:41:09;;;;;;;1.50;1.40;;;17.10;97.70;;;;;;5012226;28;20498;-45
2022/04/06 12:43:40;;;;;;;2.27;2.07;;;17.20;97.80;;;;;;5012298;28;20538;-45
2022/04/06 12:46:08;;;;;;;1.97;1.80;;;17.30;97.30;;;;;;5011050;28;20450;-43
2022/04/06 12:48:35;;;;;;;1.83;1.70;;;17.30;98.00;;;;;;5011845;28;20832;-42
2022/04/06 12:51:18;;;;;;;2.97;1.60;;;17.30;97.30;;;;;;5011640;28;20907;-46
2022/04/06 12:53:48;;;;;;;3.50;2.40;;;17.40;97.70;;;;;;5011702;28;20982;-43
2022/04/06 12:56:15;;;;;;;2.50;1.93;;;17.40;97.20;;;;;;5011751;28;21004;-43
2022/04/06 12:58:43;;;;;;;2.70;2.20;;;17.30;96.30;;;;;;5011759;28;20482;-47
2022/04/06 13:01:11;;;;;;;2.47;2.00;;;17.20;96.30;;;;;;5011413;28;20553;-43
2022/04/06 13:03:39;;;;;;;1.67;1.57;;;17.10;96.80;;;;;;5012139;28;20820;-43
2022/04/06 13:06:06;;;;;;;1.70;1.60;;;17.00;95.30;;;;;;5011185;28;20879;-43
2022/04/06 13:08:33;;;;;;;2.30;1.47;;;16.90;95.10;;;;;;5011283;28;20467;-48
2022/04/06 13:11:03;;;;;;;6.80;1.90;;;16.80;96.00;;;;;;5011449;28;20538;-42